• Join FlightAware (Why Join?)
  • Login
  • US Flag 
04:22PM EDT


 

Airport Tracker/Info


-or-


 

Live Flight TrackerFlight Track Log ✈ SKW5489 ✈ 12-Jul-2013 ✈ KORD - KASE

Flight Track Log - Related Links

Times and Time Zones

All times are in EDT time to prevent confusion due to time zone crossing. See the SKW5489 flight status page for this flight to view local times or setup timezone preferences in your user account.

Time Position Orientation Groundspeed Altitude Reporting Facility
EDT Latitude Longitude Course Direction KTS MPH feet Rate Location/Type
07:34PM 41.9167 -87.9500 261° West 202 232 3,700  Level Chicago TRACON
07:35PM 41.8667 -88.0167 225° Southwest 262 302 5,100 1,860 Climbing Chicago TRACON
07:35PM 41.8244 -88.0564 215° Southwest 270 311 6,800 2,280 Climbing Chicago Center
07:36PM 41.9077 -88.5432 261° West  Level FlightAware Approximate
07:36PM 41.7978 -88.1481 249° West 295 339 9,100  Level Chicago Center
07:37PM 41.8887 -88.7051 261° West  Level FlightAware Approximate
07:37PM 41.8019 -88.2550 273° West 292 336 11,400  Level Chicago Center
07:38PM 41.8700 -88.8671 261° West  Level FlightAware Approximate
07:38PM 41.8050 -88.3664 272° West 301 346 13,300  Level Chicago Center
07:39PM 41.8513 -89.0291 261° West  Level FlightAware Approximate
07:39PM 41.8003 -88.5128 268° West 333 383 15,400  Level Chicago Center
07:40PM 41.7922 -88.6386 265° West 339 390 17,000 1,200 Climbing Chicago Center
07:41PM 41.7822 -88.7694 264° West 351 404 18,000 1,380 Climbing Chicago Center
07:42PM 41.7703 -88.9022 263° West 360 414 19,900 1,740 Climbing Chicago Center
07:44PM 41.7592 -89.0672 265° West 372 428 21,600 1,500 Climbing Chicago Center
07:45PM 41.7461 -89.2050 263° West 378 435 23,100 1,200 Climbing Chicago Center
07:46PM 41.7358 -89.3456 264° West 380 437 24,200 960 Climbing Chicago Center
07:47PM 41.7250 -89.4892 264° West 388 447 25,200 960 Climbing Chicago Center
07:48PM 41.7050 -89.6453 260° West 406 467 26,300 1,080 Climbing Chicago Center
07:49PM 41.6800 -89.7953 257° West 414 476 27,500 1,200 Climbing Chicago Center
07:50PM 41.6517 -89.9792 258° West 421 484 28,800 1,020 Climbing Chicago Center
07:51PM 41.6272 -90.1328 258° West 425 489 29,700 840 Climbing Chicago Center
07:52PM 41.6017 -90.2881 258° West 428 493 30,600 780 Climbing Chicago Center
07:53PM 41.5753 -90.4478 258° West 437 503 31,400 720 Climbing Chicago Center
07:54PM 41.5486 -90.6083 258° West 443 510 32,200 720 Climbing Chicago Center
07:55PM 41.5206 -90.7703 257° West 446 513 33,000 660 Climbing Chicago Center
07:56PM 41.4878 -90.9656 257° West 450 518 33,600 420 Climbing Chicago Center
07:57PM 41.4586 -91.1342 257° West 462 532 33,900 480 Climbing Chicago Center
07:58PM 41.4300 -91.3058 258° West 472 543 34,700 840 Climbing Chicago Center
07:59PM 41.4008 -91.4669 256° West 469 540 35,700 960 Climbing Chicago Center
08:00PM 41.3667 -91.6639 257° West 460 529 36,700 720 Climbing Chicago Center
08:01PM 41.3383 -91.8253 257° West 452 520 37,200 480 Climbing Chicago Center
08:02PM 41.3092 -91.9875 257° West 454 522 37,700 360 Climbing Chicago Center
08:03PM 41.2806 -92.1514 257° West 456 525 38,000 120 Climbing Chicago Center
08:04PM 41.2506 -92.3136 256° West 457 526 38,000  Level Chicago Center
08:05PM 41.2150 -92.5097 257° West 469 540 38,000  Level Chicago Center
08:06PM 41.1839 -92.6772 256° West 474 545 38,000  Level Chicago Center
08:07PM 41.1528 -92.8431 256° West 470 541 38,000  Level Chicago Center
08:08PM 41.1278 -92.9769 256° West 470 541 38,000  Level Minneapolis Center
08:09PM 41.0961 -93.1425 256° West 469 540 38,000  Level Minneapolis Center
08:10PM 41.0653 -93.3044 256° West 461 531 38,000  Level Minneapolis Center
08:11PM 41.0269 -93.5033 256° West 468 539 38,000  Level Minneapolis Center
08:12PM 40.9950 -93.6706 256° West 470 541 38,000  Level Minneapolis Center
08:13PM 40.9594 -93.8403 255° West 477 549 38,000  Level Minneapolis Center
08:14PM 40.9256 -94.0053 255° West 477 549 38,000  Level Minneapolis Center
08:15PM 40.8947 -94.1658 256° West 467 537 38,000  Level Minneapolis Center
08:16PM 40.8567 -94.3622 256° West 467 537 38,000  Level Minneapolis Center
08:17PM 40.8222 -94.5256 254° West 468 539 38,000  Level Minneapolis Center
08:18PM 40.7842 -94.6978 254° West 467 537 38,000  Level Minneapolis Center
08:19PM 40.7497 -94.8600 254° West 462 532 38,000  Level Minneapolis Center
08:20PM 40.7167 -95.0228 255° West 460 529 38,000  Level Minneapolis Center
08:22PM 40.6836 -95.1853 255° West 458 527 38,000  Level Minneapolis Center
08:23PM 40.6492 -95.3478 254° West 459 528 38,000  Level Minneapolis Center
08:24PM 40.6072 -95.5433 254° West 461 531 38,000  Level Minneapolis Center
08:25PM 40.5719 -95.7078 254° West 462 532 38,000  Level Minneapolis Center
08:26PM 40.5369 -95.8703 254° West 461 531 38,000  Level Minneapolis Center
08:27PM 40.5017 -96.0328 254° West 461 531 38,000  Level Minneapolis Center
08:28PM 40.4667 -96.1953 254° West 461 531 38,000  Level Minneapolis Center
08:29PM 40.4583 -96.3633 266° West 460 529 38,000  Level Minneapolis Center
08:30PM 40.4500 -96.5300 266° West 458 527 38,000  Level Minneapolis Center
08:31PM 40.4400 -96.7300 266° West 457 526 38,000  Level Minneapolis Center
08:32PM 40.4333 -96.8639 266° West 457 526 38,000  Level Minneapolis Center
08:33PM 40.4211 -97.0644 265° West 458 527 38,000  Level Minneapolis Center
08:34PM 40.4125 -97.2303 266° West 457 526 38,000  Level Minneapolis Center
08:35PM 40.4022 -97.3936 265° West 457 526 38,000  Level Minneapolis Center
08:36PM 40.3928 -97.5606 266° West 458 527 38,000  Level Minneapolis Center
08:37PM 40.3808 -97.7597 266° West 457 526 38,000  Level Minneapolis Center
08:38PM 40.3700 -97.9267 265° West 458 527 38,000  Level Minneapolis Center
08:40PM 40.3475 -98.2608 265° West 459 528 38,000  Level Minneapolis Center
08:41PM 40.3361 -98.4261 265° West 457 526 38,000  Level Minneapolis Center
08:42PM 40.3244 -98.5942 265° West 458 527 38,000  Level Minneapolis Center
08:43PM 40.3128 -98.7608 265° West 459 528 38,000  Level Minneapolis Center
08:44PM 40.2989 -98.9603 265° West 458 527 38,000  Level Minneapolis Center
08:45PM 40.2867 -99.1250 264° West 455 524 38,000  Level Minneapolis Center
08:46PM 40.2739 -99.2903 264° West 454 522 38,000  Level Minneapolis Center
08:47PM 40.2719 -99.3231 266° West 455 524 38,000  Level Denver Center
08:48PM 40.2567 -99.5219 264° West 455 524 38,000  Level Denver Center
08:49PM 40.2381 -99.7558 264° West 460 529 38,000  Level Denver Center
08:50PM 40.2244 -99.9194 264° West 457 526 38,000  Level Denver Center
08:51PM 40.2114 -100.0786 264° West 458 527 38,000  Level Denver Center
08:52PM 40.1956 -100.2625 264° West 455 524 38,000  Level Denver Center
08:53PM 40.1819 -100.4217 264° West 458 527 38,000  Level Denver Center
08:54PM 40.1686 -100.5786 264° West 454 522 38,000  Level Denver Center
08:55PM 40.1519 -100.7625 263° West 454 522 38,000  Level Denver Center
08:56PM 40.1386 -100.9192 264° West 452 520 38,000  Level Denver Center
08:58PM 40.1219 -101.1011 263° West 450 518 38,000  Level Denver Center
08:59PM 40.1056 -101.2825 263° West 450 518 38,000  Level Denver Center
09:00PM 40.0928 -101.4111 263° West 449 517 38,000  Level Denver Center
09:01PM 40.0703 -101.6439 263° West 450 518 38,000  Level Denver Center
09:02PM 40.0306 -101.8175 253° West 447 514 38,000  Level Denver Center
09:03PM 39.9972 -101.9675 254° West 450 518 38,000  Level Denver Center
09:04PM 39.9567 -102.1400 253° West 447 514 38,000  Level Denver Center
09:05PM 39.9228 -102.2878 253° West 445 512 38,000  Level Denver Center
09:06PM 39.8817 -102.4617 253° West 450 518 38,000  Level Denver Center
09:07PM 39.8528 -102.5850 253° West 448 516 38,000  Level Denver Center
09:08PM 39.8111 -102.7633 253° West 451 519 38,000  Level Denver Center
09:09PM 39.7767 -102.9200 254° West 452 520 38,000  Level Denver Center
09:10PM 39.7425 -103.0781 254° West 455 524 38,000  Level Denver Center
09:11PM 39.6992 -103.2633 253° West 449 517 38,000  Level Denver Center
09:12PM 39.6617 -103.4169 252° West 448 516 38,000  Level Denver Center
09:13PM 39.6267 -103.5717 254° West 447 514 38,000  Level Denver Center
09:14PM 39.5900 -103.7567 256° West 444 511 38,000  Level Denver Center
09:15PM 39.5631 -103.9131 257° West 443 510 38,000  Level Denver Center
09:16PM 39.5431 -104.0708 261° West 445 512 38,000  Level Denver Center
09:18PM 39.5375 -104.2300 267° West 444 511 38,000  Level Denver Center
09:19PM 39.5192 -104.3872 261° West 444 511 38,000  Level Denver Center
09:20PM 39.5042 -104.5769 264° West 443 510 38,100 -900 Climbing Denver Center
09:21PM 39.4869 -104.7725 264° West 433 498 36,000 -2,400 Descending Denver Center
09:22PM 39.4847 -104.9294 269° West 432 497 33,200 -2,700 Descending Denver Center
09:23PM 39.4828 -105.0881 269° West 437 503 30,500 -2,640 Descending Denver Center
09:24PM 39.4800 -105.2514 269° West 452 520 27,800 -2,400 Descending Denver Center
09:25PM 39.4769 -105.4061 269° West 432 497 25,600 -1,860 Descending Denver Center
09:26PM 39.4731 -105.5642 268° West 421 484 24,100 -780 Descending Denver Center
09:27PM 39.4703 -105.7056 269° West 392 451 23,900 -720 Descending Denver Center
09:28PM 39.4803 -105.8864 274° West 370 426 22,400 -1,260 Descending Denver Center
09:29PM 39.4939 -106.0478 276° West 376 433 21,100 -1,080 Descending Denver Center
09:30PM 39.5025 -106.1575 276° West 381 438 20,200 -1,260 Descending Denver Center
09:31PM 39.5172 -106.3056 277° West 382 440 18,600 -1,320 Descending Denver Center
09:33PM 39.5283 -106.4400 276° West 378 435 17,500 -1,260 Descending Denver Center
09:34PM 39.5414 -106.5931 276° West 369 425 16,000 -840 Descending Denver Center
09:35PM 39.5428 -106.7008 271° West 311 358 15,800 -600 Descending Denver Center
09:36PM 39.5261 -106.7903 256° West 262 302 14,800 -1,020 Descending Denver Center
09:37PM 39.5103 -106.8792 257° West 250 288 13,700 -540 Descending Denver Center
09:38PM 39.4869 -106.9544 248° West 226 260 13,700 -180 Level Denver Center
09:39PM 39.4319 -106.9692 192° South 178 205 13,400 -300 Descending Denver Center